Terminal Aerodrome Forecast
Issued by NWS

Home | Current Version | Previous Version | Text Only | Print | Product List | Glossary On
Versions: 1 2 3 4 5 6 7 8 9 10 11 12 13
000
FTUS44 KLZK 280500
TAFHOT
TAF
KHOT 280524Z 2806/2906 00000KT P6SM SKC
      TEMPO 2809/2813 5SM BR
     FM281700 18007KT P6SM SCT040
     FM290000 00000KT P6SM SKC=

USA.gov is the U.S. government's official web portal to all federal, state and local government web resources and services.